createdAt,value
2022-10-06T00:00:42.433Z,999.85
2022-10-06T00:01:42.441Z,999.88
2022-10-06T00:02:42.471Z,999.83
2022-10-06T00:03:42.386Z,999.82
2022-10-06T00:04:42.378Z,999.81
2022-10-06T00:05:42.378Z,999.88
2022-10-06T00:06:42.357Z,999.90
2022-10-06T00:07:42.347Z,999.92
2022-10-06T00:08:42.340Z,999.89
2022-10-06T00:09:42.331Z,999.87
2022-10-06T00:10:42.326Z,999.95
2022-10-06T00:11:42.299Z,999.89
2022-10-06T00:12:42.290Z,999.86
2022-10-06T00:13:42.286Z,999.82
2022-10-06T00:14:42.269Z,999.88
2022-10-06T00:15:42.299Z,999.85
2022-10-06T00:16:42.250Z,999.88
2022-10-06T00:17:42.241Z,999.90
2022-10-06T00:18:42.242Z,999.93
2022-10-06T00:19:42.222Z,999.94
2022-10-06T00:20:42.220Z,999.94
2022-10-06T00:21:42.199Z,999.97
2022-10-06T00:22:42.189Z,999.94
2022-10-06T00:23:42.176Z,999.95
2022-10-06T00:24:42.163Z,999.98
2022-10-06T00:25:42.164Z,999.95
2022-10-06T00:26:42.141Z,999.93
2022-10-06T00:27:42.136Z,1000.04
2022-10-06T00:28:42.154Z,1000.07
2022-10-06T00:29:42.113Z,1000.04
2022-10-06T00:30:42.124Z,1000.16
2022-10-06T00:31:42.098Z,1000.15
2022-10-06T00:32:42.088Z,1000.14
2022-10-06T00:33:42.086Z,1000.16
2022-10-06T00:34:42.060Z,1000.11
2022-10-06T00:35:42.067Z,1000.18
2022-10-06T00:36:42.030Z,1000.21
2022-10-06T00:37:42.028Z,1000.09
2022-10-06T00:38:42.010Z,1000.13
2022-10-06T00:39:42.010Z,1000.11
2022-10-06T00:40:42.002Z,1000.10
2022-10-06T00:41:41.981Z,1000.11
2022-10-06T00:42:41.979Z,1000.19
2022-10-06T00:43:41.971Z,1000.24
2022-10-06T00:44:41.950Z,1000.23
2022-10-06T00:45:41.951Z,1000.22
2022-10-06T00:46:41.970Z,1000.26
2022-10-06T00:47:41.922Z,1000.27
2022-10-06T00:48:41.903Z,1000.27
2022-10-06T00:49:41.904Z,1000.32
2022-10-06T00:50:41.904Z,1000.29
2022-10-06T00:51:41.884Z,1000.30
2022-10-06T00:52:41.864Z,1000.32
2022-10-06T00:53:41.854Z,1000.42
2022-10-06T00:54:41.844Z,1000.42
2022-10-06T00:55:41.855Z,1000.51
2022-10-06T00:56:41.816Z,1000.50
2022-10-06T00:57:41.817Z,1000.51
2022-10-06T00:58:41.796Z,1000.45
2022-10-06T00:59:41.788Z,1000.45
2022-10-06T01:00:41.807Z,1000.45
2022-10-06T01:01:41.805Z,1000.50
2022-10-06T01:02:41.838Z,1000.45
2022-10-06T01:03:41.748Z,1000.50
2022-10-06T01:04:41.747Z,1000.48
2022-10-06T01:05:41.731Z,1000.49
2022-10-06T01:06:41.730Z,1000.55
2022-10-06T01:07:41.720Z,1000.59
2022-10-06T01:08:41.700Z,1000.60
2022-10-06T01:09:41.681Z,1000.64
2022-10-06T01:10:41.671Z,1000.65
2022-10-06T01:11:41.672Z,1000.67
2022-10-06T01:12:41.651Z,1000.68
2022-10-06T01:13:41.652Z,1000.76
2022-10-06T01:14:41.633Z,1000.82
2022-10-06T01:15:41.658Z,1000.82
2022-10-06T01:16:41.624Z,1000.87
2022-10-06T01:17:41.602Z,1001.00
2022-10-06T01:18:41.594Z,1000.98
2022-10-06T01:19:41.576Z,1000.96
2022-10-06T01:20:41.585Z,1001.08
2022-10-06T01:21:41.565Z,1001.00
2022-10-06T01:22:41.564Z,1001.03
2022-10-06T01:23:41.536Z,1001.04
2022-10-06T01:24:41.526Z,1001.04
2022-10-06T01:25:41.514Z,1001.07
2022-10-06T01:26:41.537Z,1001.02
2022-10-06T01:27:41.497Z,1001.16
2022-10-06T01:28:41.572Z,1001.20
2022-10-06T01:29:41.468Z,1001.20
2022-10-06T01:30:41.525Z,1001.23
2022-10-06T01:31:41.475Z,1001.26
2022-10-06T01:32:41.440Z,1001.27
2022-10-06T01:33:41.430Z,1001.28
2022-10-06T01:34:41.420Z,1001.34
2022-10-06T01:35:41.430Z,1001.27
2022-10-06T01:36:41.412Z,1001.33
2022-10-06T01:37:41.393Z,1001.38
2022-10-06T01:38:41.381Z,1001.38
2022-10-06T01:39:41.369Z,1001.32
2022-10-06T01:40:41.353Z,1001.32
2022-10-06T01:41:41.353Z,1001.35
2022-10-06T01:42:41.342Z,1001.44
2022-10-06T01:43:41.322Z,1001.37
2022-10-06T01:44:41.313Z,1001.42
2022-10-06T01:45:41.303Z,1001.42
2022-10-06T01:46:41.352Z,1001.42
2022-10-06T01:47:41.275Z,1001.51
2022-10-06T01:48:41.283Z,1001.50
2022-10-06T01:49:41.274Z,1001.52
2022-10-06T01:50:41.255Z,1001.48
2022-10-06T01:51:41.253Z,1001.58
2022-10-06T01:52:41.233Z,1001.47
2022-10-06T01:53:41.223Z,1001.41
2022-10-06T01:54:41.214Z,1001.49
2022-10-06T01:55:41.196Z,1001.52
2022-10-06T01:56:41.198Z,1001.65
2022-10-06T01:57:41.169Z,1001.59
2022-10-06T01:58:41.168Z,1001.64
2022-10-06T01:59:41.169Z,1001.74
2022-10-06T02:00:41.151Z,1001.80
2022-10-06T02:01:41.167Z,1001.83
2022-10-06T02:02:41.130Z,1001.92
2022-10-06T02:03:41.110Z,1001.96
2022-10-06T02:04:41.102Z,1001.94
2022-10-06T02:05:41.089Z,1001.98
2022-10-06T02:06:41.142Z,1002.16
2022-10-06T02:07:41.061Z,1002.04
2022-10-06T02:08:41.066Z,1002.14
2022-10-06T02:09:41.043Z,1002.28
2022-10-06T02:10:41.041Z,1002.32
2022-10-06T02:11:41.034Z,1002.38
2022-10-06T02:12:41.015Z,1002.31
2022-10-06T02:13:41.004Z,1002.37
2022-10-06T02:14:40.994Z,1002.32
2022-10-06T02:15:41.017Z,1002.43
2022-10-06T02:16:40.987Z,1002.31
2022-10-06T02:17:40.966Z,1002.46
2022-10-06T02:18:40.955Z,1002.46
2022-10-06T02:19:40.936Z,1002.53
2022-10-06T02:20:40.928Z,1002.49
2022-10-06T02:21:40.927Z,1002.43
2022-10-06T02:22:40.909Z,1002.41
2022-10-06T02:23:40.888Z,1002.41
2022-10-06T02:24:40.889Z,1002.45
2022-10-06T02:25:40.879Z,1002.39
2022-10-06T02:26:40.889Z,1002.31
2022-10-06T02:27:40.854Z,1002.34
2022-10-06T02:28:40.914Z,1002.42
2022-10-06T02:29:40.830Z,1002.36
2022-10-06T02:30:40.821Z,1002.38
2022-10-06T02:31:40.861Z,1002.40
2022-10-06T02:32:40.801Z,1002.44
2022-10-06T02:33:40.782Z,1002.46
2022-10-06T02:34:40.772Z,1002.38
2022-10-06T02:35:40.763Z,1002.49
2022-10-06T02:36:40.772Z,1002.60
2022-10-06T02:37:40.744Z,1002.55
2022-10-06T02:38:40.741Z,1002.59
2022-10-06T02:39:40.723Z,1002.59
2022-10-06T02:40:40.716Z,1002.60
2022-10-06T02:41:40.713Z,1002.60
2022-10-06T02:42:40.695Z,1002.46
2022-10-06T02:43:40.693Z,1002.65
2022-10-06T02:44:40.677Z,1002.58
2022-10-06T02:45:40.666Z,1002.67
2022-10-06T02:46:40.719Z,1002.68
2022-10-06T02:47:40.637Z,1002.68
2022-10-06T02:48:40.636Z,1002.71
2022-10-06T02:49:40.616Z,1002.62
2022-10-06T02:50:40.609Z,1002.70
2022-10-06T02:51:40.629Z,1002.66
2022-10-06T02:52:40.588Z,1002.64
2022-10-06T02:53:40.578Z,1002.68
2022-10-06T02:54:40.579Z,1002.86
2022-10-06T02:55:40.558Z,1002.83
2022-10-06T02:56:40.561Z,1002.76
2022-10-06T02:57:40.567Z,1002.88
2022-10-06T02:58:40.538Z,1002.84
2022-10-06T02:59:40.536Z,1002.75
2022-10-06T03:00:40.502Z,1002.82
2022-10-06T03:01:40.595Z,1002.79
2022-10-06T03:02:40.573Z,1002.81
2022-10-06T03:03:40.483Z,1002.87
2022-10-06T03:04:40.472Z,1002.86
2022-10-06T03:05:40.453Z,1002.87
2022-10-06T03:06:40.464Z,1002.97
2022-10-06T03:07:40.433Z,1002.95
2022-10-06T03:08:40.426Z,1003.03
2022-10-06T03:09:40.414Z,1003.07
2022-10-06T03:10:40.405Z,1003.03
2022-10-06T03:11:40.406Z,1003.01
2022-10-06T03:12:40.387Z,1003.02
2022-10-06T03:13:40.368Z,1003.09
2022-10-06T03:14:40.366Z,1003.01
2022-10-06T03:15:40.351Z,1002.98
2022-10-06T03:16:40.357Z,1003.04
2022-10-06T03:17:40.327Z,1003.04
2022-10-06T03:18:40.318Z,1003.12
2022-10-06T03:19:40.309Z,1003.13
2022-10-06T03:20:40.301Z,1003.16
2022-10-06T03:21:40.311Z,1003.23
2022-10-06T03:22:40.323Z,1003.14
2022-10-06T03:23:40.260Z,1003.17
2022-10-06T03:24:40.263Z,1003.19
2022-10-06T03:25:40.249Z,1003.19
2022-10-06T03:26:40.252Z,1003.18
2022-10-06T03:27:40.231Z,1003.13
2022-10-06T03:28:40.378Z,1003.16
2022-10-06T03:29:40.202Z,1003.19
2022-10-06T03:30:40.192Z,1003.33
2022-10-06T03:31:40.317Z,1003.36
2022-10-06T03:32:40.172Z,1003.39
2022-10-06T03:33:40.163Z,1003.47
2022-10-06T03:34:40.153Z,1003.54
2022-10-06T03:35:40.143Z,1003.53
2022-10-06T03:36:40.144Z,1003.63
2022-10-06T03:37:40.114Z,1003.66
2022-10-06T03:38:40.114Z,1003.57
2022-10-06T03:39:40.096Z,1003.61
2022-10-06T03:40:40.086Z,1003.60
2022-10-06T03:41:40.088Z,1003.67
2022-10-06T03:42:40.068Z,1003.74
2022-10-06T03:43:40.047Z,1003.75
2022-10-06T03:44:40.048Z,1003.72
2022-10-06T03:45:40.028Z,1003.75
2022-10-06T03:46:40.085Z,1003.76
2022-10-06T03:47:40.009Z,1003.77
2022-10-06T03:48:40.010Z,1003.78
2022-10-06T03:49:40.000Z,1003.90
2022-10-06T03:50:39.990Z,1003.91
2022-10-06T03:51:39.988Z,1003.96
2022-10-06T03:52:39.960Z,1004.01
2022-10-06T03:53:39.958Z,1003.95
2022-10-06T03:54:39.941Z,1003.98
2022-10-06T03:55:39.961Z,1004.06
2022-10-06T03:56:39.932Z,1004.00
2022-10-06T03:57:39.903Z,1004.16
2022-10-06T03:58:39.915Z,1004.16
2022-10-06T03:59:39.882Z,1004.16
2022-10-06T04:00:39.891Z,1004.24
2022-10-06T04:01:39.945Z,1004.28
2022-10-06T04:02:39.853Z,1004.23
2022-10-06T04:03:39.845Z,1004.30
2022-10-06T04:04:39.834Z,1004.33
2022-10-06T04:05:39.822Z,1004.31
2022-10-06T04:06:39.826Z,1004.36
2022-10-06T04:07:39.810Z,1004.40
2022-10-06T04:08:39.797Z,1004.43
2022-10-06T04:09:39.776Z,1004.37
2022-10-06T04:10:39.774Z,1004.44
2022-10-06T04:11:39.766Z,1004.47
2022-10-06T04:12:39.758Z,1004.49
2022-10-06T04:13:39.737Z,1004.48
2022-10-06T04:14:39.748Z,1004.59
2022-10-06T04:15:39.717Z,1004.62
2022-10-06T04:16:39.778Z,1004.55
2022-10-06T04:17:39.698Z,1004.60
2022-10-06T04:18:39.681Z,1004.65
2022-10-06T04:19:39.669Z,1004.67
2022-10-06T04:20:39.660Z,1004.70
2022-10-06T04:21:39.672Z,1004.66
2022-10-06T04:22:39.649Z,1004.67
2022-10-06T04:23:39.634Z,1004.70
2022-10-06T04:24:39.626Z,1004.73
2022-10-06T04:25:39.603Z,1004.82
2022-10-06T04:26:39.611Z,1004.90
2022-10-06T04:27:39.582Z,1004.93
2022-10-06T04:28:39.639Z,1005.01
2022-10-06T04:29:39.564Z,1004.98
2022-10-06T04:30:39.562Z,1005.00
2022-10-06T04:31:39.602Z,1005.05
2022-10-06T04:32:39.538Z,1005.05
2022-10-06T04:33:39.605Z,1005.07
2022-10-06T04:34:39.523Z,1005.06
2022-10-06T04:35:39.497Z,1005.02
2022-10-06T04:36:39.509Z,1005.05
2022-10-06T04:37:39.484Z,1005.03
2022-10-06T04:38:39.477Z,1005.02
2022-10-06T04:39:39.457Z,1005.03
2022-10-06T04:40:39.457Z,1005.04
2022-10-06T04:41:39.448Z,1005.12
2022-10-06T04:42:39.427Z,1005.10
2022-10-06T04:43:39.417Z,1005.07
2022-10-06T04:44:39.409Z,1005.21
2022-10-06T04:45:39.417Z,1005.24
2022-10-06T04:46:44.170Z,1005.23
2022-10-06T04:47:40.370Z,1005.34
2022-10-06T04:48:39.370Z,1005.24
2022-10-06T04:49:39.349Z,1005.29
2022-10-06T04:50:39.341Z,1005.29
2022-10-06T04:51:39.352Z,1005.27
2022-10-06T04:52:39.331Z,1005.23
2022-10-06T04:53:39.329Z,1005.26
2022-10-06T04:54:39.304Z,1005.28
2022-10-06T04:55:39.292Z,1005.29
2022-10-06T04:56:39.302Z,1005.27
2022-10-06T04:57:39.275Z,1005.33
2022-10-06T04:58:39.263Z,1005.36
2022-10-06T04:59:39.254Z,1005.45
2022-10-06T05:00:39.289Z,1005.50
2022-10-06T05:01:39.258Z,1005.44
2022-10-06T05:02:39.329Z,1005.49
2022-10-06T05:03:39.214Z,1005.49
2022-10-06T05:04:39.196Z,1005.50
2022-10-06T05:05:39.190Z,1005.53
2022-10-06T05:06:39.195Z,1005.53
2022-10-06T05:07:39.129Z,1005.54
2022-10-06T05:08:39.158Z,1005.65
2022-10-06T05:09:39.145Z,1005.69
2022-10-06T05:10:39.138Z,1005.73
2022-10-06T05:11:39.137Z,1005.71
2022-10-06T05:12:39.117Z,1005.74
2022-10-06T05:13:39.069Z,1005.70
2022-10-06T05:14:39.089Z,1005.72
2022-10-06T05:15:39.079Z,1005.72
2022-10-06T05:16:39.173Z,1005.76
2022-10-06T05:17:39.020Z,1005.81
2022-10-06T05:18:38.992Z,1005.80
2022-10-06T05:19:38.993Z,1005.88
2022-10-06T05:20:38.982Z,1005.90
2022-10-06T05:21:38.981Z,1005.97
2022-10-06T05:22:38.951Z,1005.90
2022-10-06T05:23:38.941Z,1005.91
2022-10-06T05:24:38.934Z,1005.92
2022-10-06T05:25:38.932Z,1005.93
2022-10-06T05:26:38.931Z,1005.98
2022-10-06T05:27:38.908Z,1005.99
2022-10-06T05:28:38.910Z,1005.97
2022-10-06T05:29:38.889Z,1006.01
2022-10-06T05:30:38.882Z,1005.98
2022-10-06T05:31:39.132Z,1006.00
2022-10-06T05:32:38.850Z,1005.96
2022-10-06T05:33:38.845Z,1006.02
2022-10-06T05:34:38.824Z,1005.98
2022-10-06T05:35:38.818Z,1005.97
2022-10-06T05:36:38.815Z,1006.01
2022-10-06T05:37:38.802Z,1006.06
2022-10-06T05:38:38.777Z,1006.01
2022-10-06T05:39:38.779Z,1006.07
2022-10-06T05:40:38.769Z,1006.14
2022-10-06T05:41:38.770Z,1006.06
2022-10-06T05:42:38.738Z,1006.16
2022-10-06T05:43:38.737Z,1006.14
2022-10-06T05:44:38.720Z,1006.13
2022-10-06T05:45:38.761Z,1006.19
2022-10-06T05:46:38.710Z,1006.22
2022-10-06T05:47:38.690Z,1006.23
2022-10-06T05:48:38.681Z,1006.20
2022-10-06T05:49:38.672Z,1006.20
2022-10-06T05:50:38.661Z,1006.26
2022-10-06T05:51:38.665Z,1006.33
2022-10-06T05:52:38.631Z,1006.33
2022-10-06T05:53:38.622Z,1006.29
2022-10-06T05:54:38.612Z,1006.28
2022-10-06T05:55:38.604Z,1006.33
2022-10-06T05:56:38.606Z,1006.34
2022-10-06T05:57:38.603Z,1006.37
2022-10-06T05:58:38.573Z,1006.43
2022-10-06T05:59:38.564Z,1006.47
2022-10-06T06:00:38.553Z,1006.52
2022-10-06T06:01:38.581Z,1006.53
2022-10-06T06:02:38.607Z,1006.52
2022-10-06T06:03:38.525Z,1006.53
2022-10-06T06:04:38.505Z,1006.52
2022-10-06T06:05:38.497Z,1006.56
2022-10-06T06:06:38.497Z,1006.54
2022-10-06T06:07:38.487Z,1006.57
2022-10-06T06:08:38.467Z,1006.53
2022-10-06T06:09:38.456Z,1006.52
2022-10-06T06:10:38.441Z,1006.59
2022-10-06T06:11:38.448Z,1006.56
2022-10-06T06:12:38.419Z,1006.59
2022-10-06T06:13:38.419Z,1006.60
2022-10-06T06:14:38.399Z,1006.59
2022-10-06T06:15:38.399Z,1006.69
2022-10-06T06:16:38.409Z,1006.67
2022-10-06T06:17:38.383Z,1006.65
2022-10-06T06:18:38.360Z,1006.66
2022-10-06T06:19:38.356Z,1006.64
2022-10-06T06:20:38.341Z,1006.74
2022-10-06T06:21:38.355Z,1006.75
2022-10-06T06:22:38.312Z,1006.73
2022-10-06T06:23:38.321Z,1006.76
2022-10-06T06:24:38.292Z,1006.81
2022-10-06T06:25:38.325Z,1006.86
2022-10-06T06:26:38.292Z,1006.88
2022-10-06T06:27:38.264Z,1006.88
2022-10-06T06:28:38.301Z,1006.87
2022-10-06T06:29:38.245Z,1006.88
2022-10-06T06:30:38.235Z,1006.85
2022-10-06T06:31:38.318Z,1006.89
2022-10-06T06:32:38.234Z,1006.99
2022-10-06T06:33:38.208Z,1007.01
2022-10-06T06:34:38.187Z,1007.03
2022-10-06T06:35:38.188Z,1007.02
2022-10-06T06:36:38.188Z,1007.00
2022-10-06T06:37:38.157Z,1007.03
2022-10-06T06:38:38.146Z,1007.07
2022-10-06T06:39:38.140Z,1007.06
2022-10-06T06:40:38.127Z,1007.10
2022-10-06T06:41:38.158Z,1007.16
2022-10-06T06:42:38.114Z,1007.16
2022-10-06T06:43:38.106Z,1007.10
2022-10-06T06:44:38.089Z,1007.19
2022-10-06T06:45:38.117Z,1007.20
2022-10-06T06:46:38.071Z,1007.16
2022-10-06T06:47:38.057Z,1007.22
2022-10-06T06:48:38.050Z,1007.24
2022-10-06T06:49:38.040Z,1007.28
2022-10-06T06:50:38.020Z,1007.28
2022-10-06T06:51:38.021Z,1007.27
2022-10-06T06:52:38.015Z,1007.39
2022-10-06T06:53:37.992Z,1007.36
2022-10-06T06:54:37.981Z,1007.40
2022-10-06T06:55:37.972Z,1007.44
2022-10-06T06:56:37.972Z,1007.42
2022-10-06T06:57:37.958Z,1007.45
2022-10-06T06:58:37.934Z,1007.51
2022-10-06T06:59:37.935Z,1007.48
2022-10-06T07:00:37.914Z,1007.53
2022-10-06T07:01:38.025Z,1007.52
2022-10-06T07:02:37.894Z,1007.51
2022-10-06T07:03:56.683Z,1007.54
2022-10-06T07:04:38.878Z,1007.54
2022-10-06T07:05:37.866Z,1007.58
2022-10-06T07:06:37.866Z,1007.65
2022-10-06T07:07:37.847Z,1007.60
2022-10-06T07:08:37.853Z,1007.62
2022-10-06T07:09:37.817Z,1007.52
2022-10-06T07:10:37.817Z,1007.58
2022-10-06T07:11:37.824Z,1007.60
2022-10-06T07:12:37.788Z,1007.68
2022-10-06T07:13:37.778Z,1007.72
2022-10-06T07:14:37.768Z,1007.75
2022-10-06T07:15:37.782Z,1007.73
2022-10-06T07:16:37.759Z,1007.76
2022-10-06T07:17:37.740Z,1007.78
2022-10-06T07:18:37.720Z,1007.81
2022-10-06T07:19:37.719Z,1007.82
2022-10-06T07:20:37.700Z,1007.80
2022-10-06T07:21:37.708Z,1007.85
2022-10-06T07:22:37.682Z,1007.86
2022-10-06T07:23:37.672Z,1007.90
2022-10-06T07:24:37.662Z,1007.89
2022-10-06T07:25:37.652Z,1007.93
2022-10-06T07:26:37.653Z,1007.89
2022-10-06T07:27:37.641Z,1007.97
2022-10-06T07:28:37.642Z,1007.94
2022-10-06T07:29:37.614Z,1007.95
2022-10-06T07:30:40.713Z,1007.98
2022-10-06T07:31:37.677Z,1008.02
2022-10-06T07:32:37.584Z,1008.05
2022-10-06T07:33:37.577Z,1008.08
2022-10-06T07:34:37.594Z,1008.06
2022-10-06T07:35:37.546Z,1008.10
2022-10-06T07:36:37.647Z,1008.10
2022-10-06T07:37:37.528Z,1008.06
2022-10-06T07:38:37.517Z,1008.04
2022-10-06T07:39:37.507Z,1008.13
2022-10-06T07:40:40.244Z,1008.09
2022-10-06T07:41:38.499Z,1008.15
2022-10-06T07:42:37.469Z,1008.18
2022-10-06T07:43:37.461Z,1008.12
2022-10-06T07:44:37.448Z,1008.15
2022-10-06T07:45:37.510Z,1008.16
2022-10-06T07:46:37.419Z,1008.08
2022-10-06T07:47:37.450Z,1008.15
2022-10-06T07:48:37.409Z,1008.22
2022-10-06T07:49:37.399Z,1008.30
2022-10-06T07:50:37.392Z,1008.34
2022-10-06T07:51:37.373Z,1008.34
2022-10-06T07:52:37.375Z,1008.41
2022-10-06T07:53:37.352Z,1008.41
2022-10-06T07:54:37.342Z,1008.39
2022-10-06T07:55:37.332Z,1008.48
2022-10-06T07:56:37.324Z,1008.46
2022-10-06T07:57:37.336Z,1008.47
2022-10-06T07:58:37.295Z,1008.45
2022-10-06T07:59:37.295Z,1008.43
2022-10-06T08:00:37.281Z,1008.42
2022-10-06T08:01:37.288Z,1008.42
2022-10-06T08:02:37.291Z,1008.44
2022-10-06T08:03:37.247Z,1008.39
2022-10-06T08:04:37.239Z,1008.45
2022-10-06T08:05:37.237Z,1008.43
2022-10-06T08:06:37.215Z,1008.47
2022-10-06T08:07:37.226Z,1008.43
2022-10-06T08:08:37.197Z,1008.49
2022-10-06T08:09:37.199Z,1008.48
2022-10-06T08:10:37.168Z,1008.44
2022-10-06T08:11:37.159Z,1008.50
2022-10-06T08:12:37.236Z,1008.51
2022-10-06T08:13:37.140Z,1008.52
2022-10-06T08:14:37.131Z,1008.50
2022-10-06T08:15:37.120Z,1008.60
2022-10-06T08:16:37.180Z,1008.58
2022-10-06T08:17:37.115Z,1008.54
2022-10-06T08:18:52.306Z,1008.55
2022-10-06T08:19:38.072Z,1008.53
2022-10-06T08:20:37.107Z,1008.66
2022-10-06T08:21:37.060Z,1008.66
2022-10-06T08:22:37.052Z,1008.67
2022-10-06T08:23:37.042Z,1008.66
2022-10-06T08:25:01.087Z,1008.64
2022-10-06T08:25:38.014Z,1008.74
2022-10-06T08:26:37.004Z,1008.70
2022-10-06T08:27:37.007Z,1008.70
2022-10-06T08:28:37.026Z,1008.72
2022-10-06T08:29:36.975Z,1008.68
2022-10-06T08:30:36.964Z,1008.75
2022-10-06T08:31:37.043Z,1008.75
2022-10-06T08:32:36.956Z,1008.75
2022-10-06T08:33:36.938Z,1008.82
2022-10-06T08:34:36.992Z,1008.86
2022-10-06T08:35:36.911Z,1008.82
2022-10-06T08:36:36.899Z,1008.85
2022-10-06T08:37:36.910Z,1008.87
2022-10-06T08:38:36.877Z,1008.84
2022-10-06T08:39:36.868Z,1008.83
2022-10-06T08:40:36.858Z,1008.86
2022-10-06T08:41:36.918Z,1008.88
2022-10-06T08:42:36.859Z,1008.84
2022-10-06T08:43:36.839Z,1008.88
2022-10-06T08:44:36.829Z,1008.86
2022-10-06T08:45:38.831Z,1008.86
2022-10-06T08:46:36.793Z,1008.86
2022-10-06T08:47:36.802Z,1008.90
2022-10-06T08:48:36.787Z,1008.98
2022-10-06T08:49:36.776Z,1008.90
2022-10-06T08:50:36.751Z,1008.88
2022-10-06T08:51:36.752Z,1008.85
2022-10-06T08:52:36.745Z,1008.90
2022-10-06T08:53:36.723Z,1008.91
2022-10-06T08:54:36.713Z,1008.96
2022-10-06T08:55:36.704Z,1008.94
2022-10-06T08:56:36.684Z,1009.00
2022-10-06T08:57:36.697Z,1008.97
2022-10-06T08:58:36.665Z,1009.12
2022-10-06T08:59:36.670Z,1009.05
2022-10-06T09:00:36.648Z,1009.03
2022-10-06T09:01:36.773Z,1009.11
2022-10-06T09:02:36.677Z,1009.13
2022-10-06T09:03:36.616Z,1009.10
2022-10-06T09:04:36.597Z,1009.10
2022-10-06T09:05:36.597Z,1009.21
2022-10-06T09:06:36.597Z,1009.19
2022-10-06T09:07:36.576Z,1009.15
2022-10-06T09:08:36.559Z,1009.19
2022-10-06T09:09:36.559Z,1009.24
2022-10-06T09:10:36.548Z,1009.24
2022-10-06T09:11:36.538Z,1009.21
2022-10-06T09:12:36.534Z,1009.26
2022-10-06T09:13:36.511Z,1009.25
2022-10-06T09:14:36.491Z,1009.29
2022-10-06T09:15:36.493Z,1009.24
2022-10-06T09:16:36.471Z,1009.24
2022-10-06T09:17:36.482Z,1009.30
2022-10-06T09:19:03.495Z,1009.26
2022-10-06T09:19:37.446Z,1009.24
2022-10-06T09:20:36.578Z,1009.26
2022-10-06T09:21:36.424Z,1009.28
2022-10-06T09:22:36.430Z,1009.29
2022-10-06T09:23:36.406Z,1009.32
2022-10-06T09:24:36.453Z,1009.32
2022-10-06T09:25:36.377Z,1009.31
2022-10-06T09:26:36.365Z,1009.25
2022-10-06T09:27:36.402Z,1009.34
2022-10-06T09:28:36.402Z,1009.35
2022-10-06T09:29:36.337Z,1009.36
2022-10-06T09:30:36.316Z,1009.36
2022-10-06T09:31:36.416Z,1009.32
2022-10-06T09:32:36.319Z,1009.39
2022-10-06T09:33:36.288Z,1009.37
2022-10-06T09:34:36.277Z,1009.40
2022-10-06T09:35:36.270Z,1009.42
2022-10-06T09:36:36.260Z,1009.44
2022-10-06T09:37:36.270Z,1009.47
2022-10-06T09:38:36.240Z,1009.41
2022-10-06T09:39:36.230Z,1009.39
2022-10-06T09:40:36.224Z,1009.43
2022-10-06T09:41:36.201Z,1009.41
2022-10-06T09:42:36.209Z,1009.40
2022-10-06T09:43:36.182Z,1009.41
2022-10-06T09:44:36.173Z,1009.47
2022-10-06T09:45:36.162Z,1009.45
2022-10-06T09:46:36.165Z,1009.44
2022-10-06T09:47:36.153Z,1009.44
2022-10-06T09:48:36.134Z,1009.42
2022-10-06T09:49:36.113Z,1009.46
2022-10-06T09:50:36.113Z,1009.40
2022-10-06T09:51:36.094Z,1009.41
2022-10-06T09:52:36.097Z,1009.47
2022-10-06T09:53:37.771Z,1009.45
2022-10-06T09:54:36.097Z,1009.44
2022-10-06T09:55:36.059Z,1009.46
2022-10-06T09:56:36.045Z,1009.43
2022-10-06T09:57:36.048Z,1009.45
2022-10-06T09:58:36.017Z,1009.49
2022-10-06T09:59:40.004Z,1009.45
2022-10-06T10:00:36.135Z,1009.48
2022-10-06T10:01:35.988Z,1009.43
2022-10-06T10:02:36.043Z,1009.50
2022-10-06T10:03:35.961Z,1009.50
2022-10-06T10:04:35.961Z,1009.48
2022-10-06T10:05:35.945Z,1009.51
2022-10-06T10:06:35.934Z,1009.57
2022-10-06T10:07:35.930Z,1009.53
2022-10-06T10:08:35.954Z,1009.44
2022-10-06T10:09:35.903Z,1009.47
2022-10-06T10:10:35.891Z,1009.46
2022-10-06T10:11:35.884Z,1009.53
2022-10-06T10:12:35.892Z,1009.48
2022-10-06T10:13:35.874Z,1009.54
2022-10-06T10:14:35.854Z,1009.55
2022-10-06T10:15:35.835Z,1009.48
2022-10-06T10:16:35.883Z,1009.41
2022-10-06T10:17:35.836Z,1009.47
2022-10-06T10:18:35.816Z,1009.46
2022-10-06T10:19:35.795Z,1009.45
2022-10-06T10:20:35.786Z,1009.46
2022-10-06T10:21:35.779Z,1009.36
2022-10-06T10:22:35.778Z,1009.47
2022-10-06T10:23:35.747Z,1009.43
2022-10-06T10:24:35.749Z,1009.48
2022-10-06T10:25:35.729Z,1009.46
2022-10-06T10:26:35.719Z,1009.41
2022-10-06T10:27:35.719Z,1009.46
2022-10-06T10:28:35.734Z,1009.46
2022-10-06T10:29:35.701Z,1009.39
2022-10-06T10:30:35.681Z,1009.38
2022-10-06T10:31:35.739Z,1009.39
2022-10-06T10:32:35.682Z,1009.43
2022-10-06T10:33:35.642Z,1009.41
2022-10-06T10:34:35.642Z,1009.35
2022-10-06T10:35:35.624Z,1009.35
2022-10-06T10:36:35.632Z,1009.42
2022-10-06T10:37:35.622Z,1009.39
2022-10-06T10:38:35.595Z,1009.37
2022-10-06T10:39:35.584Z,1009.38
2022-10-06T10:40:35.578Z,1009.36
2022-10-06T10:41:35.575Z,1009.40
2022-10-06T10:42:35.574Z,1009.38
2022-10-06T10:43:35.536Z,1009.39
2022-10-06T10:44:35.648Z,1009.43
2022-10-06T10:45:35.530Z,1009.37
2022-10-06T10:46:35.553Z,1009.42
2022-10-06T10:47:35.508Z,1009.51
2022-10-06T10:48:35.499Z,1009.43
2022-10-06T10:49:35.480Z,1009.44
2022-10-06T10:50:35.490Z,1009.49
2022-10-06T10:51:35.460Z,1009.45
2022-10-06T10:52:35.474Z,1009.48
2022-10-06T10:53:37.618Z,1009.51
2022-10-06T10:54:35.440Z,1009.49
2022-10-06T10:55:35.424Z,1009.50
2022-10-06T10:56:35.415Z,1009.48
2022-10-06T10:57:35.413Z,1009.52
2022-10-06T10:58:35.393Z,1009.45
2022-10-06T10:59:35.374Z,1009.52
2022-10-06T11:00:35.481Z,1009.48
2022-10-06T11:01:35.413Z,1009.53
2022-10-06T11:02:35.365Z,1009.57
2022-10-06T11:03:35.336Z,1009.52
2022-10-06T11:04:35.334Z,1009.58
2022-10-06T11:05:35.317Z,1009.48
2022-10-06T11:06:35.308Z,1009.47
2022-10-06T11:07:35.311Z,1009.49
2022-10-06T11:08:35.288Z,1009.50
2022-10-06T11:09:35.278Z,1009.51
2022-10-06T11:10:35.272Z,1009.48
2022-10-06T11:11:35.254Z,1009.49
2022-10-06T11:12:35.261Z,1009.46
2022-10-06T11:13:35.230Z,1009.45
2022-10-06T11:14:35.233Z,1009.41
2022-10-06T11:15:35.216Z,1009.40
2022-10-06T11:16:35.247Z,1009.39
2022-10-06T11:17:35.204Z,1009.36
2022-10-06T11:18:35.184Z,1009.39
2022-10-06T11:19:35.172Z,1009.40
2022-10-06T11:20:35.163Z,1009.44
2022-10-06T11:21:35.154Z,1009.41
2022-10-06T11:22:35.156Z,1009.44
2022-10-06T11:23:35.125Z,1009.38
2022-10-06T11:24:35.138Z,1009.42
2022-10-06T11:25:35.398Z,1009.48
2022-10-06T11:26:35.112Z,1009.51
2022-10-06T11:27:35.110Z,1009.49
2022-10-06T11:28:35.102Z,1009.46
2022-10-06T11:29:35.075Z,1009.47
2022-10-06T11:30:35.067Z,1009.46
2022-10-06T11:31:35.096Z,1009.47
2022-10-06T11:32:35.109Z,1009.48
2022-10-06T11:33:35.031Z,1009.50
2022-10-06T11:34:35.022Z,1009.48
2022-10-06T11:35:35.009Z,1009.48
2022-10-06T11:36:35.035Z,1009.54
2022-10-06T11:37:35.002Z,1009.46
2022-10-06T11:38:34.987Z,1009.47
2022-10-06T11:39:34.972Z,1009.45
2022-10-06T11:40:34.964Z,1009.41
2022-10-06T11:41:34.946Z,1009.39
2022-10-06T11:42:34.956Z,1009.39
2022-10-06T11:43:34.926Z,1009.43
2022-10-06T11:44:34.927Z,1009.34
2022-10-06T11:45:34.966Z,1009.37
2022-10-06T11:46:35.783Z,1009.36
2022-10-06T11:47:36.240Z,1009.34
2022-10-06T11:48:34.898Z,1009.33
2022-10-06T11:49:34.868Z,1009.35
2022-10-06T11:50:34.859Z,1009.31
2022-10-06T11:51:34.850Z,1009.30
2022-10-06T11:52:34.859Z,1009.29
2022-10-06T11:53:34.834Z,1009.29
2022-10-06T11:54:34.829Z,1009.29
2022-10-06T11:55:34.812Z,1009.27
2022-10-06T11:56:34.804Z,1009.28
2022-10-06T11:57:34.800Z,1009.29
2022-10-06T11:58:42.258Z,1009.30
2022-10-06T11:59:35.765Z,1009.30
2022-10-06T12:00:34.775Z,1009.31
2022-10-06T12:01:34.879Z,1009.40
2022-10-06T12:02:34.872Z,1009.33
2022-10-06T12:03:34.746Z,1009.35
2022-10-06T12:04:34.719Z,1009.23
2022-10-06T12:05:55.856Z,1009.28
2022-10-06T12:06:35.698Z,1009.24